sensor_id;sensor_type;location;lat;lon;timestamp;P1;durP1;ratioP1;P2;durP2;ratioP2
56517;SDS011;42419;48.760;2.322;2023-09-30T00:01:54;8.47;;;5.00;;
56517;SDS011;42419;48.760;2.322;2023-09-30T00:04:19;10.30;;;5.17;;
56517;SDS011;42419;48.760;2.322;2023-09-30T00:06:45;7.10;;;4.33;;
56517;SDS011;42419;48.760;2.322;2023-09-30T00:09:10;9.60;;;4.20;;
56517;SDS011;42419;48.760;2.322;2023-09-30T00:11:36;8.00;;;4.63;;
56517;SDS011;42419;48.760;2.322;2023-09-30T00:14:02;8.33;;;4.87;;
56517;SDS011;42419;48.760;2.322;2023-09-30T00:16:27;10.30;;;5.03;;
56517;SDS011;42419;48.760;2.322;2023-09-30T00:18:52;14.93;;;6.07;;
56517;SDS011;42419;48.760;2.322;2023-09-30T00:21:19;7.97;;;5.07;;
56517;SDS011;42419;48.760;2.322;2023-09-30T00:23:44;9.20;;;5.03;;
56517;SDS011;42419;48.760;2.322;2023-09-30T00:26:09;14.53;;;5.23;;
56517;SDS011;42419;48.760;2.322;2023-09-30T00:28:35;9.60;;;5.03;;
56517;SDS011;42419;48.760;2.322;2023-09-30T00:31:00;8.00;;;4.93;;
56517;SDS011;42419;48.760;2.322;2023-09-30T00:33:25;10.57;;;4.87;;
56517;SDS011;42419;48.760;2.322;2023-09-30T00:35:51;8.73;;;5.03;;
56517;SDS011;42419;48.760;2.322;2023-09-30T00:38:16;7.47;;;4.70;;
56517;SDS011;42419;48.760;2.322;2023-09-30T00:40:48;9.00;;;5.00;;
56517;SDS011;42419;48.760;2.322;2023-09-30T00:43:20;12.17;;;5.70;;
56517;SDS011;42419;48.760;2.322;2023-09-30T00:45:46;7.90;;;5.00;;
56517;SDS011;42419;48.760;2.322;2023-09-30T00:48:13;8.97;;;4.90;;
56517;SDS011;42419;48.760;2.322;2023-09-30T00:50:39;14.47;;;5.07;;
56517;SDS011;42419;48.760;2.322;2023-09-30T00:53:05;8.90;;;5.43;;
56517;SDS011;42419;48.760;2.322;2023-09-30T00:55:30;9.73;;;4.60;;
56517;SDS011;42419;48.760;2.322;2023-09-30T00:57:56;10.13;;;4.93;;
56517;SDS011;42419;48.760;2.322;2023-09-30T01:00:22;12.07;;;5.27;;
56517;SDS011;42419;48.760;2.322;2023-09-30T01:02:50;10.47;;;4.60;;
56517;SDS011;42419;48.760;2.322;2023-09-30T01:05:16;14.07;;;5.03;;
56517;SDS011;42419;48.760;2.322;2023-09-30T01:07:42;8.47;;;4.90;;
56517;SDS011;42419;48.760;2.322;2023-09-30T01:10:07;9.87;;;5.00;;
56517;SDS011;42419;48.760;2.322;2023-09-30T01:12:33;10.93;;;5.10;;
56517;SDS011;42419;48.760;2.322;2023-09-30T01:14:59;10.13;;;5.10;;
56517;SDS011;42419;48.760;2.322;2023-09-30T01:17:25;9.67;;;4.93;;
56517;SDS011;42419;48.760;2.322;2023-09-30T01:19:51;7.37;;;4.37;;
56517;SDS011;42419;48.760;2.322;2023-09-30T01:22:17;7.97;;;4.60;;
56517;SDS011;42419;48.760;2.322;2023-09-30T01:24:43;7.43;;;4.87;;
56517;SDS011;42419;48.760;2.322;2023-09-30T01:27:12;8.50;;;5.07;;
56517;SDS011;42419;48.760;2.322;2023-09-30T01:29:38;7.80;;;4.53;;
56517;SDS011;42419;48.760;2.322;2023-09-30T01:32:04;7.87;;;4.30;;
56517;SDS011;42419;48.760;2.322;2023-09-30T01:34:33;7.63;;;4.23;;
56517;SDS011;42419;48.760;2.322;2023-09-30T01:36:59;11.43;;;4.73;;
56517;SDS011;42419;48.760;2.322;2023-09-30T01:39:24;9.33;;;4.37;;
56517;SDS011;42419;48.760;2.322;2023-09-30T01:41:50;5.83;;;3.87;;
56517;SDS011;42419;48.760;2.322;2023-09-30T01:44:15;10.17;;;5.00;;
56517;SDS011;42419;48.760;2.322;2023-09-30T01:46:40;11.03;;;5.10;;
56517;SDS011;42419;48.760;2.322;2023-09-30T01:49:06;9.80;;;4.97;;
56517;SDS011;42419;48.760;2.322;2023-09-30T01:51:31;7.40;;;4.73;;
56517;SDS011;42419;48.760;2.322;2023-09-30T01:53:57;7.40;;;4.10;;
56517;SDS011;42419;48.760;2.322;2023-09-30T01:56:22;8.70;;;4.80;;
56517;SDS011;42419;48.760;2.322;2023-09-30T01:58:47;8.13;;;4.60;;
56517;SDS011;42419;48.760;2.322;2023-09-30T02:01:13;12.43;;;4.67;;
56517;SDS011;42419;48.760;2.322;2023-09-30T02:03:38;8.00;;;4.47;;
56517;SDS011;42419;48.760;2.322;2023-09-30T02:06:03;7.30;;;4.53;;
56517;SDS011;42419;48.760;2.322;2023-09-30T02:08:29;6.80;;;4.70;;
56517;SDS011;42419;48.760;2.322;2023-09-30T02:10:55;9.17;;;5.10;;
56517;SDS011;42419;48.760;2.322;2023-09-30T02:13:20;11.20;;;4.90;;
56517;SDS011;42419;48.760;2.322;2023-09-30T02:15:46;9.73;;;4.57;;
56517;SDS011;42419;48.760;2.322;2023-09-30T02:18:11;10.60;;;4.70;;
56517;SDS011;42419;48.760;2.322;2023-09-30T02:20:37;5.10;;;3.63;;
56517;SDS011;42419;48.760;2.322;2023-09-30T02:23:05;8.83;;;4.40;;
56517;SDS011;42419;48.760;2.322;2023-09-30T02:25:31;9.97;;;5.30;;
56517;SDS011;42419;48.760;2.322;2023-09-30T02:27:58;6.97;;;4.27;;
56517;SDS011;42419;48.760;2.322;2023-09-30T02:30:24;10.00;;;4.67;;
56517;SDS011;42419;48.760;2.322;2023-09-30T02:32:49;11.40;;;5.03;;
56517;SDS011;42419;48.760;2.322;2023-09-30T02:35:15;9.77;;;5.00;;
56517;SDS011;42419;48.760;2.322;2023-09-30T02:37:40;11.00;;;4.93;;
56517;SDS011;42419;48.760;2.322;2023-09-30T02:40:06;8.47;;;4.27;;
56517;SDS011;42419;48.760;2.322;2023-09-30T02:42:37;9.77;;;5.30;;
56517;SDS011;42419;48.760;2.322;2023-09-30T02:45:04;11.47;;;5.33;;
56517;SDS011;42419;48.760;2.322;2023-09-30T02:47:30;7.07;;;4.50;;
56517;SDS011;42419;48.760;2.322;2023-09-30T02:49:56;7.37;;;4.70;;
56517;SDS011;42419;48.760;2.322;2023-09-30T02:52:22;6.50;;;4.07;;
56517;SDS011;42419;48.760;2.322;2023-09-30T02:54:48;12.07;;;4.80;;
56517;SDS011;42419;48.760;2.322;2023-09-30T02:57:14;10.17;;;5.30;;
56517;SDS011;42419;48.760;2.322;2023-09-30T02:59:40;10.97;;;4.77;;
56517;SDS011;42419;48.760;2.322;2023-09-30T03:02:05;10.23;;;4.57;;
56517;SDS011;42419;48.760;2.322;2023-09-30T03:04:31;9.20;;;4.50;;
56517;SDS011;42419;48.760;2.322;2023-09-30T03:06:57;8.83;;;4.30;;
56517;SDS011;42419;48.760;2.322;2023-09-30T03:09:23;9.00;;;5.30;;
56517;SDS011;42419;48.760;2.322;2023-09-30T03:11:48;8.60;;;4.57;;
56517;SDS011;42419;48.760;2.322;2023-09-30T03:14:14;5.53;;;4.17;;
56517;SDS011;42419;48.760;2.322;2023-09-30T03:16:40;8.37;;;4.30;;
56517;SDS011;42419;48.760;2.322;2023-09-30T03:19:06;8.70;;;3.97;;
56517;SDS011;42419;48.760;2.322;2023-09-30T03:21:33;10.73;;;4.37;;
56517;SDS011;42419;48.760;2.322;2023-09-30T03:24:00;9.30;;;4.70;;
56517;SDS011;42419;48.760;2.322;2023-09-30T03:26:28;8.63;;;4.67;;
56517;SDS011;42419;48.760;2.322;2023-09-30T03:28:54;9.43;;;4.63;;
56517;SDS011;42419;48.760;2.322;2023-09-30T03:31:20;8.93;;;4.30;;
56517;SDS011;42419;48.760;2.322;2023-09-30T03:33:46;7.97;;;4.60;;
56517;SDS011;42419;48.760;2.322;2023-09-30T03:36:11;9.57;;;5.03;;
56517;SDS011;42419;48.760;2.322;2023-09-30T03:38:37;8.83;;;3.57;;
56517;SDS011;42419;48.760;2.322;2023-09-30T03:41:04;9.97;;;4.60;;
56517;SDS011;42419;48.760;2.322;2023-09-30T03:43:33;10.80;;;5.10;;
56517;SDS011;42419;48.760;2.322;2023-09-30T03:45:59;8.50;;;4.70;;
56517;SDS011;42419;48.760;2.322;2023-09-30T03:48:25;7.57;;;3.97;;
56517;SDS011;42419;48.760;2.322;2023-09-30T03:50:51;8.13;;;4.40;;
56517;SDS011;42419;48.760;2.322;2023-09-30T03:53:17;6.70;;;4.13;;
56517;SDS011;42419;48.760;2.322;2023-09-30T03:55:43;10.47;;;4.63;;
56517;SDS011;42419;48.760;2.322;2023-09-30T03:58:08;9.90;;;4.40;;
56517;SDS011;42419;48.760;2.322;2023-09-30T04:00:33;12.10;;;5.30;;
56517;SDS011;42419;48.760;2.322;2023-09-30T04:03:00;7.63;;;4.70;;
56517;SDS011;42419;48.760;2.322;2023-09-30T04:05:25;12.07;;;5.10;;
56517;SDS011;42419;48.760;2.322;2023-09-30T04:07:54;9.13;;;4.37;;
56517;SDS011;42419;48.760;2.322;2023-09-30T04:10:20;7.37;;;4.30;;
56517;SDS011;42419;48.760;2.322;2023-09-30T04:12:47;6.80;;;4.10;;
56517;SDS011;42419;48.760;2.322;2023-09-30T04:15:13;9.23;;;4.00;;
56517;SDS011;42419;48.760;2.322;2023-09-30T04:17:38;8.20;;;5.30;;
56517;SDS011;42419;48.760;2.322;2023-09-30T04:20:05;5.97;;;4.57;;
56517;SDS011;42419;48.760;2.322;2023-09-30T04:22:34;11.30;;;4.83;;
56517;SDS011;42419;48.760;2.322;2023-09-30T04:25:00;9.10;;;5.00;;
56517;SDS011;42419;48.760;2.322;2023-09-30T04:27:25;7.00;;;4.80;;
56517;SDS011;42419;48.760;2.322;2023-09-30T04:29:52;9.50;;;5.00;;
56517;SDS011;42419;48.760;2.322;2023-09-30T04:32:18;8.90;;;4.70;;
56517;SDS011;42419;48.760;2.322;2023-09-30T04:34:44;13.50;;;5.07;;
56517;SDS011;42419;48.760;2.322;2023-09-30T04:37:12;6.97;;;4.50;;
56517;SDS011;42419;48.760;2.322;2023-09-30T04:39:38;9.27;;;4.57;;
56517;SDS011;42419;48.760;2.322;2023-09-30T04:42:04;6.17;;;4.13;;
56517;SDS011;42419;48.760;2.322;2023-09-30T04:44:29;11.33;;;4.87;;
56517;SDS011;42419;48.760;2.322;2023-09-30T04:46:55;9.13;;;4.30;;
56517;SDS011;42419;48.760;2.322;2023-09-30T04:49:21;9.20;;;4.90;;
56517;SDS011;42419;48.760;2.322;2023-09-30T04:51:48;12.40;;;5.47;;
56517;SDS011;42419;48.760;2.322;2023-09-30T04:54:14;9.10;;;4.70;;
56517;SDS011;42419;48.760;2.322;2023-09-30T04:56:39;7.80;;;4.63;;
56517;SDS011;42419;48.760;2.322;2023-09-30T04:59:04;9.43;;;4.47;;
56517;SDS011;42419;48.760;2.322;2023-09-30T05:01:30;9.90;;;4.90;;
56517;SDS011;42419;48.760;2.322;2023-09-30T05:03:55;9.40;;;4.80;;
56517;SDS011;42419;48.760;2.322;2023-09-30T05:06:21;14.13;;;5.40;;
56517;SDS011;42419;48.760;2.322;2023-09-30T05:08:47;8.57;;;5.30;;
56517;SDS011;42419;48.760;2.322;2023-09-30T05:11:13;10.50;;;5.17;;
56517;SDS011;42419;48.760;2.322;2023-09-30T05:13:38;9.63;;;5.00;;
56517;SDS011;42419;48.760;2.322;2023-09-30T05:16:03;10.13;;;4.67;;
56517;SDS011;42419;48.760;2.322;2023-09-30T05:18:29;8.40;;;4.47;;
56517;SDS011;42419;48.760;2.322;2023-09-30T05:20:54;10.33;;;5.23;;
56517;SDS011;42419;48.760;2.322;2023-09-30T05:23:20;8.37;;;4.27;;
56517;SDS011;42419;48.760;2.322;2023-09-30T05:25:45;7.30;;;4.60;;
56517;SDS011;42419;48.760;2.322;2023-09-30T05:28:11;7.10;;;4.43;;
56517;SDS011;42419;48.760;2.322;2023-09-30T05:30:36;8.23;;;4.37;;
56517;SDS011;42419;48.760;2.322;2023-09-30T05:33:02;9.83;;;4.97;;
56517;SDS011;42419;48.760;2.322;2023-09-30T05:35:28;7.77;;;4.70;;
56517;SDS011;42419;48.760;2.322;2023-09-30T05:37:54;9.80;;;5.27;;
56517;SDS011;42419;48.760;2.322;2023-09-30T05:40:21;9.93;;;4.93;;
56517;SDS011;42419;48.760;2.322;2023-09-30T05:42:54;11.70;;;5.23;;
56517;SDS011;42419;48.760;2.322;2023-09-30T05:45:21;9.57;;;5.20;;
56517;SDS011;42419;48.760;2.322;2023-09-30T05:47:48;10.03;;;5.50;;
56517;SDS011;42419;48.760;2.322;2023-09-30T05:50:14;5.97;;;4.13;;
56517;SDS011;42419;48.760;2.322;2023-09-30T05:52:42;10.97;;;5.13;;
56517;SDS011;42419;48.760;2.322;2023-09-30T05:55:09;9.03;;;4.80;;
56517;SDS011;42419;48.760;2.322;2023-09-30T05:57:35;11.23;;;5.40;;
56517;SDS011;42419;48.760;2.322;2023-09-30T06:00:01;8.30;;;4.50;;
56517;SDS011;42419;48.760;2.322;2023-09-30T06:02:31;6.00;;;4.40;;
56517;SDS011;42419;48.760;2.322;2023-09-30T06:04:57;7.37;;;5.00;;
56517;SDS011;42419;48.760;2.322;2023-09-30T06:07:22;9.40;;;4.47;;
56517;SDS011;42419;48.760;2.322;2023-09-30T06:09:48;6.93;;;4.53;;
56517;SDS011;42419;48.760;2.322;2023-09-30T06:12:14;9.17;;;4.80;;
56517;SDS011;42419;48.760;2.322;2023-09-30T06:14:40;10.20;;;5.77;;
56517;SDS011;42419;48.760;2.322;2023-09-30T06:17:05;9.00;;;4.20;;
56517;SDS011;42419;48.760;2.322;2023-09-30T06:19:31;8.37;;;4.53;;
56517;SDS011;42419;48.760;2.322;2023-09-30T06:21:57;12.67;;;4.70;;
56517;SDS011;42419;48.760;2.322;2023-09-30T06:24:22;11.43;;;5.57;;
56517;SDS011;42419;48.760;2.322;2023-09-30T06:26:47;12.10;;;7.40;;
56517;SDS011;42419;48.760;2.322;2023-09-30T06:29:14;9.13;;;5.73;;
56517;SDS011;42419;48.760;2.322;2023-09-30T06:31:39;7.50;;;4.80;;
56517;SDS011;42419;48.760;2.322;2023-09-30T06:34:05;11.10;;;5.50;;
56517;SDS011;42419;48.760;2.322;2023-09-30T06:36:31;14.07;;;5.93;;
56517;SDS011;42419;48.760;2.322;2023-09-30T06:38:57;10.33;;;5.17;;
56517;SDS011;42419;48.760;2.322;2023-09-30T06:41:24;10.77;;;5.40;;
56517;SDS011;42419;48.760;2.322;2023-09-30T06:43:50;12.80;;;5.17;;
56517;SDS011;42419;48.760;2.322;2023-09-30T06:46:16;10.13;;;5.40;;
56517;SDS011;42419;48.760;2.322;2023-09-30T06:48:42;10.53;;;4.43;;
56517;SDS011;42419;48.760;2.322;2023-09-30T06:51:07;10.20;;;5.03;;
56517;SDS011;42419;48.760;2.322;2023-09-30T06:53:39;6.60;;;4.13;;
56517;SDS011;42419;48.760;2.322;2023-09-30T06:56:04;9.43;;;5.00;;
56517;SDS011;42419;48.760;2.322;2023-09-30T06:58:30;7.50;;;5.60;;
56517;SDS011;42419;48.760;2.322;2023-09-30T07:00:56;8.00;;;4.80;;
56517;SDS011;42419;48.760;2.322;2023-09-30T07:03:21;11.23;;;5.30;;
56517;SDS011;42419;48.760;2.322;2023-09-30T07:05:47;7.07;;;4.97;;
56517;SDS011;42419;48.760;2.322;2023-09-30T07:08:15;12.90;;;5.50;;
56517;SDS011;42419;48.760;2.322;2023-09-30T07:10:43;11.47;;;5.63;;
56517;SDS011;42419;48.760;2.322;2023-09-30T07:13:11;8.47;;;5.30;;
56517;SDS011;42419;48.760;2.322;2023-09-30T07:15:36;9.73;;;5.07;;
56517;SDS011;42419;48.760;2.322;2023-09-30T07:18:02;14.03;;;5.13;;
56517;SDS011;42419;48.760;2.322;2023-09-30T07:20:27;9.10;;;5.13;;
56517;SDS011;42419;48.760;2.322;2023-09-30T07:22:54;14.07;;;5.00;;
56517;SDS011;42419;48.760;2.322;2023-09-30T07:25:19;8.43;;;5.40;;
56517;SDS011;42419;48.760;2.322;2023-09-30T07:27:44;12.50;;;6.20;;
56517;SDS011;42419;48.760;2.322;2023-09-30T07:30:11;12.13;;;4.40;;
56517;SDS011;42419;48.760;2.322;2023-09-30T07:32:40;9.50;;;5.30;;
56517;SDS011;42419;48.760;2.322;2023-09-30T07:35:07;7.60;;;5.47;;
56517;SDS011;42419;48.760;2.322;2023-09-30T07:37:33;20.10;;;9.67;;
56517;SDS011;42419;48.760;2.322;2023-09-30T07:39:58;11.57;;;7.57;;
56517;SDS011;42419;48.760;2.322;2023-09-30T07:42:24;24.57;;;15.47;;
56517;SDS011;42419;48.760;2.322;2023-09-30T07:44:50;28.93;;;20.60;;
56517;SDS011;42419;48.760;2.322;2023-09-30T07:47:15;23.67;;;16.13;;
56517;SDS011;42419;48.760;2.322;2023-09-30T07:49:40;20.90;;;11.87;;
56517;SDS011;42419;48.760;2.322;2023-09-30T07:52:06;19.67;;;12.20;;
56517;SDS011;42419;48.760;2.322;2023-09-30T07:54:31;15.40;;;9.00;;
56517;SDS011;42419;48.760;2.322;2023-09-30T07:56:56;13.60;;;6.40;;
56517;SDS011;42419;48.760;2.322;2023-09-30T07:59:22;12.90;;;5.93;;
56517;SDS011;42419;48.760;2.322;2023-09-30T08:01:48;14.17;;;6.40;;
56517;SDS011;42419;48.760;2.322;2023-09-30T08:04:13;13.57;;;6.00;;
56517;SDS011;42419;48.760;2.322;2023-09-30T08:06:39;15.43;;;6.17;;
56517;SDS011;42419;48.760;2.322;2023-09-30T08:09:04;13.00;;;5.90;;
56517;SDS011;42419;48.760;2.322;2023-09-30T08:11:34;12.00;;;6.00;;
56517;SDS011;42419;48.760;2.322;2023-09-30T08:14:02;15.43;;;5.10;;
56517;SDS011;42419;48.760;2.322;2023-09-30T08:16:31;11.17;;;5.77;;
56517;SDS011;42419;48.760;2.322;2023-09-30T08:19:00;13.80;;;5.07;;
56517;SDS011;42419;48.760;2.322;2023-09-30T08:21:25;13.87;;;4.23;;
56517;SDS011;42419;48.760;2.322;2023-09-30T08:23:51;10.57;;;5.33;;
56517;SDS011;42419;48.760;2.322;2023-09-30T08:26:16;10.70;;;5.03;;
56517;SDS011;42419;48.760;2.322;2023-09-30T08:28:41;9.40;;;4.97;;
56517;SDS011;42419;48.760;2.322;2023-09-30T08:31:07;9.53;;;4.73;;
56517;SDS011;42419;48.760;2.322;2023-09-30T08:33:34;13.20;;;5.70;;
56517;SDS011;42419;48.760;2.322;2023-09-30T08:36:01;8.23;;;4.70;;
56517;SDS011;42419;48.760;2.322;2023-09-30T08:38:32;11.57;;;5.17;;
56517;SDS011;42419;48.760;2.322;2023-09-30T08:40:58;16.10;;;5.57;;
56517;SDS011;42419;48.760;2.322;2023-09-30T08:43:24;9.17;;;4.50;;
56517;SDS011;42419;48.760;2.322;2023-09-30T08:45:52;13.70;;;5.27;;
56517;SDS011;42419;48.760;2.322;2023-09-30T08:48:19;14.93;;;5.83;;
56517;SDS011;42419;48.760;2.322;2023-09-30T08:50:45;11.50;;;4.60;;
56517;SDS011;42419;48.760;2.322;2023-09-30T08:53:11;12.60;;;5.23;;
56517;SDS011;42419;48.760;2.322;2023-09-30T08:55:39;10.57;;;5.17;;
56517;SDS011;42419;48.760;2.322;2023-09-30T08:58:06;12.10;;;5.10;;
56517;SDS011;42419;48.760;2.322;2023-09-30T09:00:32;12.10;;;5.13;;
56517;SDS011;42419;48.760;2.322;2023-09-30T09:02:58;9.80;;;5.10;;
56517;SDS011;42419;48.760;2.322;2023-09-30T09:05:23;13.13;;;5.07;;
56517;SDS011;42419;48.760;2.322;2023-09-30T09:07:49;12.20;;;5.90;;
56517;SDS011;42419;48.760;2.322;2023-09-30T09:10:15;9.60;;;4.20;;
56517;SDS011;42419;48.760;2.322;2023-09-30T09:12:41;10.07;;;5.40;;
56517;SDS011;42419;48.760;2.322;2023-09-30T09:15:08;12.13;;;5.10;;
56517;SDS011;42419;48.760;2.322;2023-09-30T09:17:45;11.80;;;5.00;;
56517;SDS011;42419;48.760;2.322;2023-09-30T09:20:11;13.13;;;4.90;;
56517;SDS011;42419;48.760;2.322;2023-09-30T09:22:45;12.90;;;4.70;;
56517;SDS011;42419;48.760;2.322;2023-09-30T09:25:12;13.50;;;5.60;;
56517;SDS011;42419;48.760;2.322;2023-09-30T09:27:37;12.97;;;5.07;;
56517;SDS011;42419;48.760;2.322;2023-09-30T09:30:19;13.33;;;4.53;;
56517;SDS011;42419;48.760;2.322;2023-09-30T09:33:03;11.33;;;4.27;;
56517;SDS011;42419;48.760;2.322;2023-09-30T09:35:32;8.63;;;4.70;;
56517;SDS011;42419;48.760;2.322;2023-09-30T09:40:29;11.00;;;4.87;;
56517;SDS011;42419;48.760;2.322;2023-09-30T09:42:57;13.40;;;5.30;;
56517;SDS011;42419;48.760;2.322;2023-09-30T09:45:27;10.97;;;4.60;;
56517;SDS011;42419;48.760;2.322;2023-09-30T09:47:53;11.00;;;4.90;;
56517;SDS011;42419;48.760;2.322;2023-09-30T09:50:20;9.57;;;4.87;;
56517;SDS011;42419;48.760;2.322;2023-09-30T09:52:50;11.77;;;5.10;;
56517;SDS011;42419;48.760;2.322;2023-09-30T09:55:17;10.60;;;5.37;;
56517;SDS011;42419;48.760;2.322;2023-09-30T09:57:44;9.07;;;5.00;;
56517;SDS011;42419;48.760;2.322;2023-09-30T10:00:21;11.07;;;4.90;;
56517;SDS011;42419;48.760;2.322;2023-09-30T10:02:49;14.70;;;6.00;;
56517;SDS011;42419;48.760;2.322;2023-09-30T10:05:15;12.37;;;4.93;;
56517;SDS011;42419;48.760;2.322;2023-09-30T10:10:19;10.90;;;5.40;;
56517;SDS011;42419;48.760;2.322;2023-09-30T10:12:47;8.90;;;4.80;;
56517;SDS011;42419;48.760;2.322;2023-09-30T10:18:02;14.53;;;5.97;;
56517;SDS011;42419;48.760;2.322;2023-09-30T10:20:29;14.40;;;5.50;;
56517;SDS011;42419;48.760;2.322;2023-09-30T10:25:49;11.60;;;5.30;;
56517;SDS011;42419;48.760;2.322;2023-09-30T10:36:31;13.67;;;6.70;;
56517;SDS011;42419;48.760;2.322;2023-09-30T10:38:59;17.47;;;6.57;;
56517;SDS011;42419;48.760;2.322;2023-09-30T10:46:50;9.13;;;5.60;;
56517;SDS011;42419;48.760;2.322;2023-09-30T10:49:16;13.10;;;6.13;;
56517;SDS011;42419;48.760;2.322;2023-09-30T10:51:45;15.73;;;6.47;;
56517;SDS011;42419;48.760;2.322;2023-09-30T10:54:11;10.97;;;5.60;;
56517;SDS011;42419;48.760;2.322;2023-09-30T10:56:38;11.97;;;6.47;;
56517;SDS011;42419;48.760;2.322;2023-09-30T10:59:03;11.80;;;6.27;;
56517;SDS011;42419;48.760;2.322;2023-09-30T11:01:33;9.93;;;5.73;;
56517;SDS011;42419;48.760;2.322;2023-09-30T11:03:59;11.23;;;5.80;;
56517;SDS011;42419;48.760;2.322;2023-09-30T11:06:30;12.80;;;6.00;;
56517;SDS011;42419;48.760;2.322;2023-09-30T11:08:56;12.63;;;6.60;;
56517;SDS011;42419;48.760;2.322;2023-09-30T11:11:37;8.63;;;6.07;;
56517;SDS011;42419;48.760;2.322;2023-09-30T11:14:19;10.33;;;5.43;;
56517;SDS011;42419;48.760;2.322;2023-09-30T11:16:45;11.30;;;6.40;;
56517;SDS011;42419;48.760;2.322;2023-09-30T11:19:12;19.93;;;14.27;;
56517;SDS011;42419;48.760;2.322;2023-09-30T11:21:38;12.50;;;6.30;;
56517;SDS011;42419;48.760;2.322;2023-09-30T11:24:04;14.63;;;6.97;;
56517;SDS011;42419;48.760;2.322;2023-09-30T11:26:31;11.23;;;5.50;;
56517;SDS011;42419;48.760;2.322;2023-09-30T11:29:04;8.43;;;5.50;;
56517;SDS011;42419;48.760;2.322;2023-09-30T11:31:32;10.40;;;5.70;;
56517;SDS011;42419;48.760;2.322;2023-09-30T11:33:59;13.37;;;6.20;;
56517;SDS011;42419;48.760;2.322;2023-09-30T11:36:29;12.70;;;6.83;;
56517;SDS011;42419;48.760;2.322;2023-09-30T11:38:55;9.40;;;5.50;;
56517;SDS011;42419;48.760;2.322;2023-09-30T11:41:21;10.10;;;5.90;;
56517;SDS011;42419;48.760;2.322;2023-09-30T11:44:06;16.83;;;6.57;;
56517;SDS011;42419;48.760;2.322;2023-09-30T11:49:52;10.80;;;6.33;;
56517;SDS011;42419;48.760;2.322;2023-09-30T11:52:13;11.33;;;6.03;;
56517;SDS011;42419;48.760;2.322;2023-09-30T11:54:44;14.53;;;6.40;;
56517;SDS011;42419;48.760;2.322;2023-09-30T11:57:11;13.00;;;6.10;;
56517;SDS011;42419;48.760;2.322;2023-09-30T11:59:40;12.13;;;5.90;;
56517;SDS011;42419;48.760;2.322;2023-09-30T12:02:06;10.60;;;6.23;;
56517;SDS011;42419;48.760;2.322;2023-09-30T12:04:35;11.77;;;5.67;;
56517;SDS011;42419;48.760;2.322;2023-09-30T12:07:01;9.77;;;5.20;;
56517;SDS011;42419;48.760;2.322;2023-09-30T12:09:27;13.63;;;6.27;;
56517;SDS011;42419;48.760;2.322;2023-09-30T12:11:53;10.50;;;5.40;;
56517;SDS011;42419;48.760;2.322;2023-09-30T12:14:19;9.07;;;4.93;;
56517;SDS011;42419;48.760;2.322;2023-09-30T12:16:46;6.97;;;4.87;;
56517;SDS011;42419;48.760;2.322;2023-09-30T12:19:13;8.87;;;5.03;;
56517;SDS011;42419;48.760;2.322;2023-09-30T12:21:40;9.50;;;4.93;;
56517;SDS011;42419;48.760;2.322;2023-09-30T12:24:06;8.17;;;5.00;;
56517;SDS011;42419;48.760;2.322;2023-09-30T12:26:34;10.63;;;5.60;;
56517;SDS011;42419;48.760;2.322;2023-09-30T12:29:01;11.07;;;5.90;;
56517;SDS011;42419;48.760;2.322;2023-09-30T12:31:26;10.80;;;6.03;;
56517;SDS011;42419;48.760;2.322;2023-09-30T12:33:51;12.33;;;6.40;;
56517;SDS011;42419;48.760;2.322;2023-09-30T12:36:19;9.27;;;5.20;;
56517;SDS011;42419;48.760;2.322;2023-09-30T12:38:44;7.90;;;5.17;;
56517;SDS011;42419;48.760;2.322;2023-09-30T12:41:10;8.43;;;5.80;;
56517;SDS011;42419;48.760;2.322;2023-09-30T12:43:36;11.77;;;6.43;;
56517;SDS011;42419;48.760;2.322;2023-09-30T12:46:02;9.70;;;5.40;;
56517;SDS011;42419;48.760;2.322;2023-09-30T12:48:27;10.50;;;5.70;;
56517;SDS011;42419;48.760;2.322;2023-09-30T12:50:52;10.53;;;5.93;;
56517;SDS011;42419;48.760;2.322;2023-09-30T12:53:18;8.97;;;5.97;;
56517;SDS011;42419;48.760;2.322;2023-09-30T12:55:43;9.63;;;5.17;;
56517;SDS011;42419;48.760;2.322;2023-09-30T12:58:08;9.60;;;5.90;;
56517;SDS011;42419;48.760;2.322;2023-09-30T13:00:34;9.90;;;6.03;;
56517;SDS011;42419;48.760;2.322;2023-09-30T13:03:00;10.77;;;6.00;;
56517;SDS011;42419;48.760;2.322;2023-09-30T13:05:26;9.30;;;6.07;;
56517;SDS011;42419;48.760;2.322;2023-09-30T13:07:53;11.20;;;5.53;;
56517;SDS011;42419;48.760;2.322;2023-09-30T13:10:18;9.00;;;5.33;;
56517;SDS011;42419;48.760;2.322;2023-09-30T13:12:44;10.43;;;6.23;;
56517;SDS011;42419;48.760;2.322;2023-09-30T13:15:09;8.23;;;5.50;;
56517;SDS011;42419;48.760;2.322;2023-09-30T13:17:35;7.60;;;5.13;;
56517;SDS011;42419;48.760;2.322;2023-09-30T13:20:00;8.63;;;5.80;;
56517;SDS011;42419;48.760;2.322;2023-09-30T13:22:30;9.17;;;5.80;;
56517;SDS011;42419;48.760;2.322;2023-09-30T13:24:55;11.50;;;6.27;;
56517;SDS011;42419;48.760;2.322;2023-09-30T13:27:20;14.03;;;7.10;;
56517;SDS011;42419;48.760;2.322;2023-09-30T13:29:46;8.87;;;5.90;;
56517;SDS011;42419;48.760;2.322;2023-09-30T13:32:12;11.97;;;7.30;;
56517;SDS011;42419;48.760;2.322;2023-09-30T13:34:39;9.53;;;6.13;;
56517;SDS011;42419;48.760;2.322;2023-09-30T13:37:05;11.40;;;6.20;;
56517;SDS011;42419;48.760;2.322;2023-09-30T13:39:30;8.57;;;5.30;;
56517;SDS011;42419;48.760;2.322;2023-09-30T13:41:56;9.73;;;5.70;;
56517;SDS011;42419;48.760;2.322;2023-09-30T13:44:21;9.93;;;6.10;;
56517;SDS011;42419;48.760;2.322;2023-09-30T13:46:47;9.50;;;5.87;;
56517;SDS011;42419;48.760;2.322;2023-09-30T13:49:12;11.10;;;4.93;;
56517;SDS011;42419;48.760;2.322;2023-09-30T13:51:38;10.00;;;4.83;;
56517;SDS011;42419;48.760;2.322;2023-09-30T13:54:04;8.60;;;5.30;;
56517;SDS011;42419;48.760;2.322;2023-09-30T13:56:32;10.30;;;6.20;;
56517;SDS011;42419;48.760;2.322;2023-09-30T13:58:57;10.50;;;6.13;;
56517;SDS011;42419;48.760;2.322;2023-09-30T14:01:23;15.93;;;6.80;;
56517;SDS011;42419;48.760;2.322;2023-09-30T14:03:48;9.30;;;5.60;;
56517;SDS011;42419;48.760;2.322;2023-09-30T14:06:14;10.20;;;6.10;;
56517;SDS011;42419;48.760;2.322;2023-09-30T14:08:40;11.50;;;6.07;;
56517;SDS011;42419;48.760;2.322;2023-09-30T14:11:09;11.27;;;6.20;;
56517;SDS011;42419;48.760;2.322;2023-09-30T14:13:35;14.67;;;7.13;;
56517;SDS011;42419;48.760;2.322;2023-09-30T14:16:00;11.80;;;6.20;;
56517;SDS011;42419;48.760;2.322;2023-09-30T14:18:26;9.27;;;6.13;;
56517;SDS011;42419;48.760;2.322;2023-09-30T14:20:54;9.70;;;6.70;;
56517;SDS011;42419;48.760;2.322;2023-09-30T14:23:20;12.40;;;7.07;;
56517;SDS011;42419;48.760;2.322;2023-09-30T14:25:45;10.07;;;6.20;;
56517;SDS011;42419;48.760;2.322;2023-09-30T14:28:10;8.93;;;6.23;;
56517;SDS011;42419;48.760;2.322;2023-09-30T14:30:36;11.87;;;6.43;;
56517;SDS011;42419;48.760;2.322;2023-09-30T14:33:01;9.70;;;6.20;;
56517;SDS011;42419;48.760;2.322;2023-09-30T14:35:28;9.47;;;6.00;;
56517;SDS011;42419;48.760;2.322;2023-09-30T14:37:53;11.37;;;6.80;;
56517;SDS011;42419;48.760;2.322;2023-09-30T14:40:19;14.10;;;7.27;;
56517;SDS011;42419;48.760;2.322;2023-09-30T14:42:45;8.80;;;5.77;;
56517;SDS011;42419;48.760;2.322;2023-09-30T14:45:11;9.23;;;5.43;;
56517;SDS011;42419;48.760;2.322;2023-09-30T14:47:36;9.53;;;6.37;;
56517;SDS011;42419;48.760;2.322;2023-09-30T14:50:01;11.43;;;6.60;;
56517;SDS011;42419;48.760;2.322;2023-09-30T14:52:27;10.10;;;6.27;;
56517;SDS011;42419;48.760;2.322;2023-09-30T14:54:53;11.43;;;6.30;;
56517;SDS011;42419;48.760;2.322;2023-09-30T14:57:19;8.43;;;6.10;;
56517;SDS011;42419;48.760;2.322;2023-09-30T14:59:46;11.50;;;7.13;;
56517;SDS011;42419;48.760;2.322;2023-09-30T15:02:11;10.43;;;6.13;;
56517;SDS011;42419;48.760;2.322;2023-09-30T15:04:37;11.07;;;6.53;;